createdAt,value
2022-08-14T00:02:06.457Z,8.13
2022-08-14T00:07:10.743Z,8.40
2022-08-14T00:12:23.782Z,7.82
2022-08-14T00:17:27.001Z,8.13
2022-08-14T00:22:44.634Z,8.32
2022-08-14T00:27:54.215Z,8.38
2022-08-14T00:32:56.872Z,8.00
2022-08-14T00:37:59.135Z,7.95
2022-08-14T00:43:02.122Z,7.63
2022-08-14T00:48:04.762Z,7.97
2022-08-14T00:53:10.532Z,8.88
2022-08-14T00:58:32.526Z,8.35
2022-08-14T01:03:39.700Z,8.43
2022-08-14T01:08:52.301Z,8.45
2022-08-14T01:14:18.228Z,9.32
2022-08-14T01:19:43.703Z,9.35
2022-08-14T01:24:45.986Z,8.18
2022-08-14T01:30:00.839Z,8.55
2022-08-14T01:35:18.269Z,9.15
2022-08-14T01:40:36.587Z,9.35
2022-08-14T01:46:06.020Z,9.55
2022-08-14T01:51:18.689Z,8.45
2022-08-14T01:56:24.558Z,8.90
2022-08-14T02:01:35.258Z,9.60
2022-08-14T02:06:38.900Z,9.15
2022-08-14T02:11:41.192Z,9.45
2022-08-14T02:16:47.949Z,8.77
2022-08-14T02:21:54.749Z,9.85
2022-08-14T02:28:23.039Z,8.88
2022-08-14T02:32:30.329Z,9.52
2022-08-14T02:37:47.443Z,9.45
2022-08-14T02:42:54.688Z,9.40
2022-08-14T02:48:10.540Z,8.35
2022-08-14T02:53:31.251Z,8.32
2022-08-14T02:58:38.728Z,8.60
2022-08-14T03:03:46.344Z,8.73
2022-08-14T03:08:48.525Z,8.38
2022-08-14T03:13:52.192Z,9.77
2022-08-14T03:18:59.857Z,8.75
2022-08-14T03:24:07.844Z,9.40
2022-08-14T03:29:26.149Z,9.73
2022-08-14T03:34:48.487Z,9.10
2022-08-14T03:39:50.889Z,9.57
2022-08-14T03:45:19.881Z,10.18
2022-08-14T03:50:14.992Z,10.40
2022-08-14T03:55:30.687Z,9.27
2022-08-14T04:00:42.920Z,10.13
2022-08-14T04:05:48.490Z,10.18
2022-08-14T04:10:51.014Z,10.52
2022-08-14T04:16:02.089Z,11.02
2022-08-14T04:21:08.077Z,10.80
2022-08-14T04:26:14.401Z,10.40
2022-08-14T04:32:56.273Z,10.50
2022-08-14T04:37:01.038Z,9.82
2022-08-14T04:42:47.582Z,9.90
2022-08-14T04:48:12.672Z,12.82
2022-08-14T04:53:17.491Z,12.25
2022-08-14T04:58:32.659Z,13.35
2022-08-14T05:08:56.951Z,13.43
2022-08-14T05:14:34.338Z,14.52
2022-08-14T05:19:29.352Z,13.48
2022-08-14T05:24:31.703Z,12.65
2022-08-14T05:29:34.894Z,11.45
2022-08-14T05:34:36.937Z,10.15
2022-08-14T05:39:40.774Z,9.70
2022-08-14T05:44:42.860Z,9.82
2022-08-14T05:49:48.661Z,13.32
2022-08-14T05:54:50.589Z,12.23
2022-08-14T05:59:52.484Z,12.60
2022-08-14T06:04:55.198Z,12.98
2022-08-14T06:10:04.003Z,12.93
2022-08-14T06:15:08.416Z,11.38
2022-08-14T06:20:12.490Z,11.13
2022-08-14T06:25:16.213Z,10.93
2022-08-14T06:30:24.140Z,10.20
2022-08-14T06:35:32.402Z,11.27
2022-08-14T06:40:37.119Z,10.77
2022-08-14T06:45:43.687Z,10.02
2022-08-14T06:50:53.954Z,10.48
2022-08-14T06:56:00.822Z,9.93
2022-08-14T07:01:27.829Z,9.40
2022-08-14T07:06:46.273Z,8.85
2022-08-14T07:11:48.794Z,8.30
2022-08-14T07:16:50.667Z,8.50
2022-08-14T07:21:52.624Z,7.97
2022-08-14T07:26:54.636Z,7.43
2022-08-14T07:31:56.657Z,7.93
2022-08-14T07:37:00.861Z,7.32
2022-08-14T07:42:03.185Z,7.35
2022-08-14T07:47:05.409Z,7.63
2022-08-14T07:52:08.232Z,7.47
2022-08-14T07:57:12.626Z,6.95
2022-08-14T08:02:18.741Z,6.80
2022-08-14T08:07:22.902Z,7.07
2022-08-14T08:12:30.234Z,7.90
2022-08-14T08:17:42.706Z,7.55
2022-08-14T08:23:00.489Z,7.78
2022-08-14T08:28:22.200Z,7.40
2022-08-14T08:33:31.832Z,7.40
2022-08-14T08:39:15.583Z,7.70
2022-08-14T08:44:05.380Z,7.53
2022-08-14T08:49:07.635Z,7.57
2022-08-14T08:54:19.611Z,7.53
2022-08-14T08:59:31.703Z,7.25
2022-08-14T09:04:45.640Z,7.78
2022-08-14T09:09:59.997Z,7.57
2022-08-14T09:15:12.077Z,6.88
2022-08-14T09:20:26.015Z,6.32
2022-08-14T09:25:58.971Z,6.35
2022-08-14T09:30:57.780Z,6.97
2022-08-14T09:36:21.803Z,6.22
2022-08-14T09:42:20.473Z,6.45
2022-08-14T09:47:19.424Z,6.35
2022-08-14T09:52:34.059Z,5.50
2022-08-14T09:57:36.435Z,5.47
2022-08-14T10:02:45.712Z,5.28
2022-08-14T10:07:53.404Z,5.53
2022-08-14T10:13:01.062Z,5.50
2022-08-14T10:18:13.350Z,5.20
2022-08-14T10:23:23.010Z,5.38
2022-08-14T10:29:03.891Z,5.20
2022-08-14T10:34:13.014Z,5.45
2022-08-14T10:39:19.331Z,4.63
2022-08-14T10:44:25.045Z,4.68
2022-08-14T10:49:31.902Z,5.00
2022-08-14T10:54:43.063Z,5.00
2022-08-14T10:59:57.923Z,4.60
2022-08-14T11:05:11.508Z,5.30
2022-08-14T11:10:15.084Z,4.90
2022-08-14T11:15:22.930Z,5.10
2022-08-14T11:20:27.430Z,4.82
2022-08-14T11:25:41.349Z,4.72
2022-08-14T11:30:53.397Z,4.80
2022-08-14T11:35:59.527Z,4.20
2022-08-14T11:41:02.250Z,4.95
2022-08-14T11:46:06.491Z,4.50
2022-08-14T11:51:23.899Z,4.18
2022-08-14T11:56:35.788Z,3.97
2022-08-14T12:01:41.319Z,4.38
2022-08-14T12:06:52.743Z,4.38
2022-08-14T12:11:55.688Z,3.95
2022-08-14T12:17:11.860Z,4.53
2022-08-14T12:22:25.861Z,4.55
2022-08-14T12:28:02.468Z,4.53
2022-08-14T12:33:08.566Z,4.72
2022-08-14T12:38:19.568Z,4.85
2022-08-14T12:43:23.260Z,4.35
2022-08-14T12:48:32.186Z,5.55
2022-08-14T12:53:38.902Z,5.10
2022-08-14T12:58:51.886Z,4.75
2022-08-14T13:04:16.207Z,4.78
2022-08-14T13:09:19.228Z,5.22
2022-08-14T13:14:29.613Z,4.70
2022-08-14T13:19:33.102Z,4.47
2022-08-14T13:24:37.706Z,5.25
2022-08-14T13:29:46.619Z,5.13
2022-08-14T13:34:49.351Z,5.77
2022-08-14T13:39:56.699Z,5.57
2022-08-14T13:45:02.478Z,5.13
2022-08-14T13:50:11.609Z,5.22
2022-08-14T13:55:16.290Z,5.25
2022-08-14T14:00:21.628Z,4.80
2022-08-14T14:05:52.915Z,5.28
2022-08-14T14:10:56.152Z,5.60
2022-08-14T14:16:03.814Z,4.63
2022-08-14T14:21:06.549Z,5.13
2022-08-14T14:26:19.973Z,4.47
2022-08-14T14:31:30.200Z,4.88
2022-08-14T14:36:32.920Z,4.68
2022-08-14T14:41:43.511Z,5.15
2022-08-14T14:46:50.300Z,5.05
2022-08-14T14:51:52.666Z,5.70
2022-08-14T14:56:56.640Z,4.75
2022-08-14T15:02:02.417Z,4.75
2022-08-14T15:07:07.144Z,5.10
2022-08-14T15:12:34.710Z,4.97
2022-08-14T15:17:41.495Z,5.13
2022-08-14T15:22:51.379Z,4.75
2022-08-14T15:27:54.535Z,5.22
2022-08-14T15:32:57.498Z,5.13
2022-08-14T15:38:08.344Z,5.53
2022-08-14T15:43:12.778Z,5.25
2022-08-14T15:48:22.187Z,5.13
2022-08-14T15:53:25.122Z,5.20
2022-08-14T15:58:33.461Z,4.50
2022-08-14T16:03:39.971Z,5.28
2022-08-14T16:08:46.799Z,5.05
2022-08-14T16:13:52.498Z,5.03
2022-08-14T16:18:59.704Z,5.32
2022-08-14T16:24:03.344Z,5.07
2022-08-14T16:29:07.682Z,5.07
2022-08-14T16:34:45.509Z,4.88
2022-08-14T16:39:37.708Z,5.22
2022-08-14T16:44:41.205Z,5.40
2022-08-14T16:50:05.077Z,5.40
2022-08-14T16:55:09.584Z,5.65
2022-08-14T17:00:29.939Z,5.22
2022-08-14T17:05:41.777Z,5.13
2022-08-14T17:10:48.198Z,4.50
2022-08-14T17:16:25.425Z,5.30
2022-08-14T17:21:38.432Z,4.90
2022-08-14T17:26:44.959Z,5.10
2022-08-14T17:31:58.059Z,5.57
2022-08-14T17:37:02.717Z,5.55
2022-08-14T17:42:13.498Z,5.30
2022-08-14T17:47:18.059Z,5.43
2022-08-14T17:52:35.861Z,6.57
2022-08-14T17:57:42.962Z,5.57
2022-08-14T18:02:51.334Z,5.95
2022-08-14T18:07:59.717Z,7.10
2022-08-14T18:13:16.685Z,6.28
2022-08-14T18:18:19.669Z,6.78
2022-08-14T18:23:22.005Z,6.38
2022-08-14T18:28:48.105Z,6.57
2022-08-14T18:34:30.960Z,7.07
2022-08-14T18:40:02.062Z,7.88
2022-08-14T18:45:01.032Z,7.50
2022-08-14T18:50:27.025Z,6.95
2022-08-14T18:55:36.689Z,5.95
2022-08-14T19:00:58.837Z,6.82
2022-08-14T19:06:07.386Z,6.35
2022-08-14T19:11:34.523Z,6.80
2022-08-14T19:16:43.028Z,6.20
2022-08-14T19:21:57.886Z,6.32
2022-08-14T19:27:16.471Z,6.55
2022-08-14T19:32:39.679Z,6.38
2022-08-14T19:37:52.395Z,6.43
2022-08-14T19:42:58.456Z,6.90
2022-08-14T19:48:02.683Z,5.50
2022-08-14T19:53:11.588Z,5.97
2022-08-14T19:58:13.899Z,6.00
2022-08-14T20:03:18.951Z,5.90
2022-08-14T20:09:05.999Z,6.57
2022-08-14T20:13:58.403Z,6.07
2022-08-14T20:19:30.102Z,6.35
2022-08-14T20:24:41.117Z,7.22
2022-08-14T20:29:44.359Z,6.68
2022-08-14T20:34:51.231Z,6.78
2022-08-14T20:39:53.970Z,6.63
2022-08-14T20:45:21.388Z,6.35
2022-08-14T20:50:28.749Z,6.50
2022-08-14T20:55:41.487Z,6.20
2022-08-14T21:00:52.162Z,7.38
2022-08-14T21:06:00.017Z,6.40
2022-08-14T21:11:05.723Z,6.40
2022-08-14T21:16:33.662Z,6.75
2022-08-14T21:21:40.465Z,6.40
2022-08-14T21:26:51.403Z,6.38
2022-08-14T21:32:02.443Z,6.30
2022-08-14T21:42:28.045Z,6.57
2022-08-14T21:47:30.017Z,6.47
2022-08-14T21:52:51.453Z,7.50
2022-08-14T21:58:46.312Z,6.78
2022-08-14T22:03:24.285Z,7.20
2022-08-14T22:08:27.304Z,6.70
2022-08-14T22:13:32.454Z,7.55
2022-08-14T22:18:34.601Z,7.53
2022-08-14T22:23:38.997Z,7.20
2022-08-14T22:28:44.852Z,6.85
2022-08-14T22:33:49.881Z,6.00
2022-08-14T22:38:59.703Z,6.93
2022-08-14T22:44:10.933Z,6.55
2022-08-14T22:49:16.507Z,7.43
2022-08-14T22:54:51.928Z,7.45
2022-08-14T22:59:55.672Z,6.72
2022-08-14T23:04:58.782Z,8.05
2022-08-14T23:10:32.471Z,6.70
2022-08-14T23:15:29.783Z,7.90
2022-08-14T23:20:36.268Z,7.80
2022-08-14T23:25:59.071Z,7.13
2022-08-14T23:31:08.353Z,7.25
2022-08-14T23:36:32.480Z,6.75
2022-08-14T23:41:45.842Z,7.07
2022-08-14T23:46:52.552Z,7.70
2022-08-14T23:52:49.582Z,7.13
2022-08-14T23:57:20.784Z,8.10
